sensor_id;sensor_type;location;lat;lon;timestamp;P1;durP1;ratioP1;P2;durP2;ratioP2
48765;SDS011;65794;51.836;5.002;2023-07-31T00:02:14;33.08;;;7.50;;
48765;SDS011;65794;51.836;5.002;2023-07-31T00:04:41;36.40;;;7.93;;
48765;SDS011;65794;51.836;5.002;2023-07-31T00:07:08;31.20;;;7.28;;
48765;SDS011;65794;51.836;5.002;2023-07-31T00:09:36;35.10;;;7.40;;
48765;SDS011;65794;51.836;5.002;2023-07-31T00:12:03;23.02;;;6.43;;
48765;SDS011;65794;51.836;5.002;2023-07-31T00:14:30;22.42;;;6.45;;
48765;SDS011;65794;51.836;5.002;2023-07-31T00:16:57;29.85;;;6.85;;
48765;SDS011;65794;51.836;5.002;2023-07-31T00:19:24;33.30;;;7.55;;
48765;SDS011;65794;51.836;5.002;2023-07-31T00:21:51;30.60;;;7.03;;
48765;SDS011;65794;51.836;5.002;2023-07-31T00:24:18;35.38;;;7.20;;
48765;SDS011;65794;51.836;5.002;2023-07-31T00:26:45;24.27;;;7.32;;
48765;SDS011;65794;51.836;5.002;2023-07-31T00:29:11;33.08;;;8.05;;
48765;SDS011;65794;51.836;5.002;2023-07-31T00:31:38;36.22;;;6.70;;
48765;SDS011;65794;51.836;5.002;2023-07-31T00:34:06;30.63;;;7.28;;
48765;SDS011;65794;51.836;5.002;2023-07-31T00:36:34;40.67;;;7.28;;
48765;SDS011;65794;51.836;5.002;2023-07-31T00:39:02;28.90;;;6.65;;
48765;SDS011;65794;51.836;5.002;2023-07-31T00:41:29;29.00;;;7.28;;
48765;SDS011;65794;51.836;5.002;2023-07-31T00:43:56;21.73;;;6.07;;
48765;SDS011;65794;51.836;5.002;2023-07-31T00:46:22;23.85;;;6.38;;
48765;SDS011;65794;51.836;5.002;2023-07-31T00:48:49;25.05;;;6.20;;
48765;SDS011;65794;51.836;5.002;2023-07-31T00:51:17;24.77;;;6.45;;
48765;SDS011;65794;51.836;5.002;2023-07-31T00:53:44;26.05;;;6.85;;
48765;SDS011;65794;51.836;5.002;2023-07-31T00:56:11;24.38;;;6.13;;
48765;SDS011;65794;51.836;5.002;2023-07-31T00:58:39;33.47;;;7.55;;
48765;SDS011;65794;51.836;5.002;2023-07-31T01:01:07;28.35;;;6.38;;
48765;SDS011;65794;51.836;5.002;2023-07-31T01:03:34;30.15;;;7.43;;
48765;SDS011;65794;51.836;5.002;2023-07-31T01:11:14;25.77;;;6.70;;
48765;SDS011;65794;51.836;5.002;2023-07-31T01:13:43;20.30;;;5.82;;
48765;SDS011;65794;51.836;5.002;2023-07-31T01:16:11;23.73;;;6.32;;
48765;SDS011;65794;51.836;5.002;2023-07-31T01:18:38;25.92;;;6.15;;
48765;SDS011;65794;51.836;5.002;2023-07-31T01:21:21;26.00;;;6.47;;
48765;SDS011;65794;51.836;5.002;2023-07-31T01:26:36;18.85;;;6.07;;
48765;SDS011;65794;51.836;5.002;2023-07-31T01:29:10;22.25;;;6.22;;
48765;SDS011;65794;51.836;5.002;2023-07-31T01:31:38;20.08;;;5.35;;
48765;SDS011;65794;51.836;5.002;2023-07-31T01:34:06;25.10;;;5.07;;
48765;SDS011;65794;51.836;5.002;2023-07-31T01:36:35;14.95;;;4.65;;
48765;SDS011;65794;51.836;5.002;2023-07-31T01:39:02;18.45;;;5.68;;
48765;SDS011;65794;51.836;5.002;2023-07-31T01:41:30;20.20;;;4.30;;
48765;SDS011;65794;51.836;5.002;2023-07-31T01:43:57;25.80;;;5.00;;
48765;SDS011;65794;51.836;5.002;2023-07-31T01:46:24;18.13;;;4.88;;
48765;SDS011;65794;51.836;5.002;2023-07-31T01:48:51;23.05;;;5.20;;
48765;SDS011;65794;51.836;5.002;2023-07-31T01:51:18;23.25;;;4.45;;
48765;SDS011;65794;51.836;5.002;2023-07-31T01:53:45;16.92;;;4.95;;
48765;SDS011;65794;51.836;5.002;2023-07-31T01:56:12;17.13;;;5.15;;
48765;SDS011;65794;51.836;5.002;2023-07-31T01:58:39;17.50;;;4.85;;
48765;SDS011;65794;51.836;5.002;2023-07-31T02:01:06;19.80;;;5.05;;
48765;SDS011;65794;51.836;5.002;2023-07-31T02:03:33;19.15;;;5.57;;
48765;SDS011;65794;51.836;5.002;2023-07-31T02:06:00;20.67;;;6.00;;
48765;SDS011;65794;51.836;5.002;2023-07-31T02:08:27;26.45;;;5.85;;
48765;SDS011;65794;51.836;5.002;2023-07-31T02:10:54;18.27;;;5.50;;
48765;SDS011;65794;51.836;5.002;2023-07-31T02:13:22;33.17;;;5.78;;
48765;SDS011;65794;51.836;5.002;2023-07-31T02:15:49;29.40;;;5.38;;
48765;SDS011;65794;51.836;5.002;2023-07-31T02:18:17;27.23;;;7.05;;
48765;SDS011;65794;51.836;5.002;2023-07-31T02:20:48;29.42;;;6.35;;
48765;SDS011;65794;51.836;5.002;2023-07-31T02:23:15;21.85;;;6.20;;
48765;SDS011;65794;51.836;5.002;2023-07-31T02:25:42;19.58;;;6.13;;
48765;SDS011;65794;51.836;5.002;2023-07-31T02:28:09;26.83;;;6.47;;
48765;SDS011;65794;51.836;5.002;2023-07-31T02:30:36;18.00;;;5.82;;
48765;SDS011;65794;51.836;5.002;2023-07-31T02:33:04;21.90;;;4.88;;
48765;SDS011;65794;51.836;5.002;2023-07-31T02:35:30;19.42;;;5.30;;
48765;SDS011;65794;51.836;5.002;2023-07-31T02:37:58;20.00;;;5.30;;
48765;SDS011;65794;51.836;5.002;2023-07-31T02:40:24;24.92;;;5.47;;
48765;SDS011;65794;51.836;5.002;2023-07-31T02:42:51;16.48;;;5.10;;
48765;SDS011;65794;51.836;5.002;2023-07-31T02:45:18;25.85;;;5.75;;
48765;SDS011;65794;51.836;5.002;2023-07-31T02:47:46;20.17;;;5.65;;
48765;SDS011;65794;51.836;5.002;2023-07-31T02:50:13;22.40;;;5.40;;
48765;SDS011;65794;51.836;5.002;2023-07-31T02:52:39;24.67;;;5.30;;
48765;SDS011;65794;51.836;5.002;2023-07-31T02:55:07;19.80;;;4.55;;
48765;SDS011;65794;51.836;5.002;2023-07-31T02:57:33;18.38;;;5.07;;
48765;SDS011;65794;51.836;5.002;2023-07-31T03:00:00;15.90;;;4.88;;
48765;SDS011;65794;51.836;5.002;2023-07-31T03:02:27;14.95;;;4.97;;
48765;SDS011;65794;51.836;5.002;2023-07-31T03:04:54;23.20;;;5.15;;
48765;SDS011;65794;51.836;5.002;2023-07-31T03:07:21;16.17;;;5.13;;
48765;SDS011;65794;51.836;5.002;2023-07-31T03:09:48;18.38;;;5.10;;
48765;SDS011;65794;51.836;5.002;2023-07-31T03:12:15;21.63;;;5.07;;
48765;SDS011;65794;51.836;5.002;2023-07-31T03:14:42;19.35;;;4.85;;
48765;SDS011;65794;51.836;5.002;2023-07-31T03:17:09;26.40;;;5.03;;
48765;SDS011;65794;51.836;5.002;2023-07-31T03:19:36;26.80;;;5.75;;
48765;SDS011;65794;51.836;5.002;2023-07-31T03:22:03;20.33;;;6.07;;
48765;SDS011;65794;51.836;5.002;2023-07-31T03:24:30;27.83;;;5.60;;
48765;SDS011;65794;51.836;5.002;2023-07-31T03:26:57;26.13;;;5.10;;
48765;SDS011;65794;51.836;5.002;2023-07-31T03:29:26;18.90;;;5.15;;
48765;SDS011;65794;51.836;5.002;2023-07-31T03:31:53;19.38;;;5.43;;
48765;SDS011;65794;51.836;5.002;2023-07-31T03:34:20;24.05;;;4.93;;
48765;SDS011;65794;51.836;5.002;2023-07-31T03:36:47;15.95;;;4.93;;
48765;SDS011;65794;51.836;5.002;2023-07-31T03:39:14;22.30;;;5.07;;
48765;SDS011;65794;51.836;5.002;2023-07-31T03:41:41;15.23;;;4.22;;
48765;SDS011;65794;51.836;5.002;2023-07-31T03:44:08;25.15;;;5.30;;
48765;SDS011;65794;51.836;5.002;2023-07-31T03:46:35;21.75;;;5.15;;
48765;SDS011;65794;51.836;5.002;2023-07-31T03:49:03;15.73;;;5.10;;
48765;SDS011;65794;51.836;5.002;2023-07-31T03:51:30;16.67;;;4.80;;
48765;SDS011;65794;51.836;5.002;2023-07-31T03:53:57;19.85;;;5.38;;
48765;SDS011;65794;51.836;5.002;2023-07-31T03:56:24;18.40;;;4.85;;
48765;SDS011;65794;51.836;5.002;2023-07-31T03:58:51;20.13;;;5.50;;
48765;SDS011;65794;51.836;5.002;2023-07-31T04:01:19;21.75;;;4.75;;
48765;SDS011;65794;51.836;5.002;2023-07-31T04:03:46;26.92;;;5.57;;
48765;SDS011;65794;51.836;5.002;2023-07-31T04:06:13;19.60;;;5.32;;
48765;SDS011;65794;51.836;5.002;2023-07-31T04:08:40;21.90;;;5.45;;
48765;SDS011;65794;51.836;5.002;2023-07-31T04:11:07;12.48;;;4.32;;
48765;SDS011;65794;51.836;5.002;2023-07-31T04:13:34;18.00;;;4.18;;
48765;SDS011;65794;51.836;5.002;2023-07-31T04:16:01;24.00;;;5.18;;
48765;SDS011;65794;51.836;5.002;2023-07-31T04:18:28;14.05;;;5.03;;
48765;SDS011;65794;51.836;5.002;2023-07-31T04:20:58;17.48;;;4.57;;
48765;SDS011;65794;51.836;5.002;2023-07-31T04:23:25;15.15;;;4.38;;
48765;SDS011;65794;51.836;5.002;2023-07-31T04:25:52;21.08;;;5.05;;
48765;SDS011;65794;51.836;5.002;2023-07-31T04:28:19;22.77;;;5.43;;
48765;SDS011;65794;51.836;5.002;2023-07-31T04:30:46;19.02;;;4.30;;
48765;SDS011;65794;51.836;5.002;2023-07-31T04:33:16;18.23;;;4.80;;
48765;SDS011;65794;51.836;5.002;2023-07-31T04:35:48;22.38;;;4.65;;
48765;SDS011;65794;51.836;5.002;2023-07-31T04:38:19;17.27;;;4.75;;
48765;SDS011;65794;51.836;5.002;2023-07-31T04:40:46;17.35;;;4.65;;
48765;SDS011;65794;51.836;5.002;2023-07-31T04:43:13;15.82;;;4.72;;
48765;SDS011;65794;51.836;5.002;2023-07-31T04:45:42;17.48;;;4.75;;
48765;SDS011;65794;51.836;5.002;2023-07-31T04:48:08;21.20;;;4.72;;
48765;SDS011;65794;51.836;5.002;2023-07-31T04:50:36;18.05;;;4.75;;
48765;SDS011;65794;51.836;5.002;2023-07-31T04:53:03;13.07;;;4.28;;
48765;SDS011;65794;51.836;5.002;2023-07-31T04:55:30;13.60;;;4.53;;
48765;SDS011;65794;51.836;5.002;2023-07-31T04:57:58;14.25;;;4.80;;
48765;SDS011;65794;51.836;5.002;2023-07-31T05:00:25;16.52;;;4.47;;
48765;SDS011;65794;51.836;5.002;2023-07-31T05:02:52;13.27;;;4.75;;
48765;SDS011;65794;51.836;5.002;2023-07-31T05:05:19;25.55;;;5.47;;
48765;SDS011;65794;51.836;5.002;2023-07-31T05:07:46;28.10;;;5.35;;
48765;SDS011;65794;51.836;5.002;2023-07-31T05:10:13;18.98;;;4.68;;
48765;SDS011;65794;51.836;5.002;2023-07-31T05:12:40;19.42;;;5.28;;
48765;SDS011;65794;51.836;5.002;2023-07-31T05:15:07;18.75;;;4.97;;
48765;SDS011;65794;51.836;5.002;2023-07-31T05:17:34;16.52;;;4.78;;
48765;SDS011;65794;51.836;5.002;2023-07-31T05:20:01;17.98;;;4.88;;
48765;SDS011;65794;51.836;5.002;2023-07-31T05:22:28;21.77;;;5.32;;
48765;SDS011;65794;51.836;5.002;2023-07-31T05:24:55;19.67;;;5.80;;
48765;SDS011;65794;51.836;5.002;2023-07-31T05:27:22;17.38;;;5.07;;
48765;SDS011;65794;51.836;5.002;2023-07-31T05:29:49;18.15;;;5.32;;
48765;SDS011;65794;51.836;5.002;2023-07-31T05:32:16;14.93;;;4.68;;
48765;SDS011;65794;51.836;5.002;2023-07-31T05:34:43;24.95;;;5.25;;
48765;SDS011;65794;51.836;5.002;2023-07-31T05:37:10;16.33;;;4.85;;
48765;SDS011;65794;51.836;5.002;2023-07-31T05:39:38;16.85;;;4.82;;
48765;SDS011;65794;51.836;5.002;2023-07-31T05:42:05;24.10;;;5.45;;
48765;SDS011;65794;51.836;5.002;2023-07-31T05:44:32;13.68;;;5.15;;
48765;SDS011;65794;51.836;5.002;2023-07-31T05:46:59;12.18;;;4.57;;
48765;SDS011;65794;51.836;5.002;2023-07-31T05:49:25;13.30;;;4.55;;
48765;SDS011;65794;51.836;5.002;2023-07-31T05:51:53;10.57;;;3.95;;
48765;SDS011;65794;51.836;5.002;2023-07-31T05:54:19;15.77;;;3.95;;
48765;SDS011;65794;51.836;5.002;2023-07-31T05:56:46;9.98;;;4.22;;
48765;SDS011;65794;51.836;5.002;2023-07-31T05:59:13;10.43;;;4.35;;
48765;SDS011;65794;51.836;5.002;2023-07-31T06:01:40;11.88;;;3.53;;
48765;SDS011;65794;51.836;5.002;2023-07-31T06:04:07;13.65;;;3.42;;
48765;SDS011;65794;51.836;5.002;2023-07-31T06:06:34;15.25;;;3.83;;
48765;SDS011;65794;51.836;5.002;2023-07-31T06:09:01;12.43;;;3.78;;
48765;SDS011;65794;51.836;5.002;2023-07-31T06:11:30;8.18;;;3.65;;
48765;SDS011;65794;51.836;5.002;2023-07-31T06:13:57;13.05;;;3.83;;
48765;SDS011;65794;51.836;5.002;2023-07-31T06:16:26;12.93;;;4.05;;
48765;SDS011;65794;51.836;5.002;2023-07-31T06:18:54;12.90;;;4.03;;
48765;SDS011;65794;51.836;5.002;2023-07-31T06:21:21;12.45;;;4.32;;
48765;SDS011;65794;51.836;5.002;2023-07-31T06:23:47;13.32;;;4.68;;
48765;SDS011;65794;51.836;5.002;2023-07-31T06:26:14;9.25;;;3.97;;
48765;SDS011;65794;51.836;5.002;2023-07-31T06:28:41;14.52;;;4.88;;
48765;SDS011;65794;51.836;5.002;2023-07-31T06:31:08;12.38;;;5.38;;
48765;SDS011;65794;51.836;5.002;2023-07-31T06:33:35;8.77;;;4.32;;
48765;SDS011;65794;51.836;5.002;2023-07-31T06:36:02;14.50;;;5.47;;
48765;SDS011;65794;51.836;5.002;2023-07-31T06:38:29;18.92;;;5.53;;
48765;SDS011;65794;51.836;5.002;2023-07-31T06:40:56;16.20;;;5.90;;
48765;SDS011;65794;51.836;5.002;2023-07-31T06:43:23;17.77;;;6.63;;
48765;SDS011;65794;51.836;5.002;2023-07-31T06:45:53;12.38;;;6.05;;
48765;SDS011;65794;51.836;5.002;2023-07-31T06:48:20;16.10;;;5.95;;
48765;SDS011;65794;51.836;5.002;2023-07-31T06:50:46;11.38;;;5.05;;
48765;SDS011;65794;51.836;5.002;2023-07-31T06:53:13;16.35;;;5.75;;
48765;SDS011;65794;51.836;5.002;2023-07-31T06:55:43;12.02;;;5.15;;
48765;SDS011;65794;51.836;5.002;2023-07-31T06:58:25;17.65;;;5.15;;
48765;SDS011;65794;51.836;5.002;2023-07-31T07:00:52;11.65;;;5.50;;
48765;SDS011;65794;51.836;5.002;2023-07-31T07:03:20;14.52;;;5.10;;
48765;SDS011;65794;51.836;5.002;2023-07-31T07:05:48;12.20;;;5.05;;
48765;SDS011;65794;51.836;5.002;2023-07-31T07:08:22;9.90;;;4.32;;
48765;SDS011;65794;51.836;5.002;2023-07-31T07:10:53;9.10;;;4.45;;
48765;SDS011;65794;51.836;5.002;2023-07-31T07:13:26;11.30;;;4.18;;
48765;SDS011;65794;51.836;5.002;2023-07-31T07:15:53;12.88;;;4.30;;
48765;SDS011;65794;51.836;5.002;2023-07-31T07:18:20;12.35;;;4.32;;
48765;SDS011;65794;51.836;5.002;2023-07-31T07:20:49;8.60;;;4.82;;
48765;SDS011;65794;51.836;5.002;2023-07-31T07:23:17;10.35;;;4.45;;
48765;SDS011;65794;51.836;5.002;2023-07-31T07:25:45;5.88;;;3.63;;
48765;SDS011;65794;51.836;5.002;2023-07-31T07:28:12;13.95;;;4.32;;
48765;SDS011;65794;51.836;5.002;2023-07-31T07:30:39;8.05;;;4.22;;
48765;SDS011;65794;51.836;5.002;2023-07-31T07:33:06;12.73;;;3.80;;
48765;SDS011;65794;51.836;5.002;2023-07-31T07:35:34;9.23;;;3.42;;
48765;SDS011;65794;51.836;5.002;2023-07-31T07:38:02;11.15;;;3.67;;
48765;SDS011;65794;51.836;5.002;2023-07-31T07:40:30;10.73;;;3.70;;
48765;SDS011;65794;51.836;5.002;2023-07-31T07:42:57;5.43;;;2.70;;
48765;SDS011;65794;51.836;5.002;2023-07-31T07:45:24;8.55;;;2.75;;
48765;SDS011;65794;51.836;5.002;2023-07-31T07:47:51;6.35;;;3.60;;
48765;SDS011;65794;51.836;5.002;2023-07-31T07:50:18;13.60;;;6.88;;
48765;SDS011;65794;51.836;5.002;2023-07-31T07:52:45;6.47;;;3.10;;
48765;SDS011;65794;51.836;5.002;2023-07-31T07:55:12;5.93;;;3.60;;
48765;SDS011;65794;51.836;5.002;2023-07-31T07:57:39;6.50;;;3.67;;
48765;SDS011;65794;51.836;5.002;2023-07-31T08:00:06;7.82;;;4.13;;
48765;SDS011;65794;51.836;5.002;2023-07-31T08:02:39;8.27;;;4.20;;
48765;SDS011;65794;51.836;5.002;2023-07-31T08:05:06;7.47;;;4.70;;
48765;SDS011;65794;51.836;5.002;2023-07-31T08:07:33;7.65;;;4.50;;
48765;SDS011;65794;51.836;5.002;2023-07-31T08:10:00;9.30;;;4.60;;
48765;SDS011;65794;51.836;5.002;2023-07-31T08:12:27;8.15;;;4.63;;
48765;SDS011;65794;51.836;5.002;2023-07-31T08:14:54;7.72;;;4.18;;
48765;SDS011;65794;51.836;5.002;2023-07-31T08:17:21;8.27;;;4.38;;
48765;SDS011;65794;51.836;5.002;2023-07-31T08:19:48;7.22;;;4.10;;
48765;SDS011;65794;51.836;5.002;2023-07-31T08:22:15;8.10;;;4.40;;
48765;SDS011;65794;51.836;5.002;2023-07-31T08:24:42;6.47;;;3.63;;
48765;SDS011;65794;51.836;5.002;2023-07-31T08:27:12;7.15;;;4.18;;
48765;SDS011;65794;51.836;5.002;2023-07-31T08:29:39;8.40;;;3.78;;
48765;SDS011;65794;51.836;5.002;2023-07-31T08:32:06;6.95;;;3.88;;
48765;SDS011;65794;51.836;5.002;2023-07-31T08:34:33;11.13;;;4.43;;
48765;SDS011;65794;51.836;5.002;2023-07-31T08:37:00;11.13;;;5.18;;
48765;SDS011;65794;51.836;5.002;2023-07-31T08:39:27;11.02;;;4.03;;
48765;SDS011;65794;51.836;5.002;2023-07-31T08:41:57;11.40;;;3.78;;
48765;SDS011;65794;51.836;5.002;2023-07-31T08:44:24;9.75;;;3.85;;
48765;SDS011;65794;51.836;5.002;2023-07-31T08:46:51;13.73;;;4.70;;
48765;SDS011;65794;51.836;5.002;2023-07-31T08:49:19;7.72;;;4.50;;
48765;SDS011;65794;51.836;5.002;2023-07-31T08:51:47;12.30;;;4.75;;
48765;SDS011;65794;51.836;5.002;2023-07-31T08:54:17;10.88;;;3.47;;
48765;SDS011;65794;51.836;5.002;2023-07-31T08:56:44;10.07;;;4.30;;
48765;SDS011;65794;51.836;5.002;2023-07-31T08:59:11;9.85;;;3.63;;
48765;SDS011;65794;51.836;5.002;2023-07-31T09:01:43;9.05;;;4.85;;
48765;SDS011;65794;51.836;5.002;2023-07-31T09:04:10;14.73;;;4.35;;
48765;SDS011;65794;51.836;5.002;2023-07-31T09:06:38;10.88;;;4.68;;
48765;SDS011;65794;51.836;5.002;2023-07-31T09:09:06;11.45;;;4.15;;
48765;SDS011;65794;51.836;5.002;2023-07-31T09:11:33;9.73;;;3.80;;
48765;SDS011;65794;51.836;5.002;2023-07-31T09:14:00;7.90;;;3.78;;
48765;SDS011;65794;51.836;5.002;2023-07-31T09:16:35;10.20;;;4.60;;
48765;SDS011;65794;51.836;5.002;2023-07-31T09:19:02;8.68;;;3.95;;
48765;SDS011;65794;51.836;5.002;2023-07-31T09:21:31;8.88;;;4.15;;
48765;SDS011;65794;51.836;5.002;2023-07-31T09:23:58;14.45;;;4.38;;
48765;SDS011;65794;51.836;5.002;2023-07-31T09:28:56;11.63;;;5.20;;
48765;SDS011;65794;51.836;5.002;2023-07-31T09:31:33;11.05;;;4.75;;
48765;SDS011;65794;51.836;5.002;2023-07-31T09:34:00;15.77;;;9.00;;
48765;SDS011;65794;51.836;5.002;2023-07-31T09:36:30;11.25;;;5.25;;
48765;SDS011;65794;51.836;5.002;2023-07-31T09:39:02;8.80;;;4.55;;
48765;SDS011;65794;51.836;5.002;2023-07-31T09:41:30;10.27;;;4.68;;
48765;SDS011;65794;51.836;5.002;2023-07-31T09:43:57;7.50;;;3.55;;
48765;SDS011;65794;51.836;5.002;2023-07-31T09:46:26;8.63;;;3.45;;
48765;SDS011;65794;51.836;5.002;2023-07-31T09:49:05;10.10;;;3.08;;
48765;SDS011;65794;51.836;5.002;2023-07-31T09:51:32;8.88;;;3.33;;
48765;SDS011;65794;51.836;5.002;2023-07-31T09:54:11;7.28;;;3.00;;
48765;SDS011;65794;51.836;5.002;2023-07-31T09:59:13;4.50;;;2.35;;
48765;SDS011;65794;51.836;5.002;2023-07-31T10:01:41;8.57;;;2.90;;
48765;SDS011;65794;51.836;5.002;2023-07-31T10:04:09;6.32;;;2.58;;
48765;SDS011;65794;51.836;5.002;2023-07-31T10:06:37;7.35;;;2.88;;
48765;SDS011;65794;51.836;5.002;2023-07-31T10:09:05;5.57;;;2.58;;
48765;SDS011;65794;51.836;5.002;2023-07-31T10:11:43;4.78;;;2.40;;
48765;SDS011;65794;51.836;5.002;2023-07-31T10:14:12;9.20;;;2.58;;
48765;SDS011;65794;51.836;5.002;2023-07-31T10:16:39;7.45;;;2.83;;
48765;SDS011;65794;51.836;5.002;2023-07-31T10:19:08;7.20;;;2.70;;
48765;SDS011;65794;51.836;5.002;2023-07-31T10:21:35;9.85;;;2.75;;
48765;SDS011;65794;51.836;5.002;2023-07-31T10:24:04;8.48;;;3.47;;
48765;SDS011;65794;51.836;5.002;2023-07-31T10:26:32;10.13;;;2.83;;
48765;SDS011;65794;51.836;5.002;2023-07-31T10:29:00;6.78;;;2.90;;
48765;SDS011;65794;51.836;5.002;2023-07-31T10:31:28;5.88;;;2.53;;
48765;SDS011;65794;51.836;5.002;2023-07-31T10:33:55;4.75;;;2.40;;
48765;SDS011;65794;51.836;5.002;2023-07-31T10:36:23;7.25;;;2.67;;
48765;SDS011;65794;51.836;5.002;2023-07-31T10:38:50;6.80;;;2.50;;
48765;SDS011;65794;51.836;5.002;2023-07-31T10:41:17;5.45;;;2.45;;
48765;SDS011;65794;51.836;5.002;2023-07-31T10:43:47;7.32;;;2.58;;
48765;SDS011;65794;51.836;5.002;2023-07-31T10:46:14;7.32;;;2.33;;
48765;SDS011;65794;51.836;5.002;2023-07-31T10:48:41;7.03;;;2.53;;
48765;SDS011;65794;51.836;5.002;2023-07-31T10:51:09;4.28;;;2.10;;
48765;SDS011;65794;51.836;5.002;2023-07-31T10:53:38;5.20;;;2.42;;
48765;SDS011;65794;51.836;5.002;2023-07-31T10:56:07;5.60;;;1.95;;
48765;SDS011;65794;51.836;5.002;2023-07-31T10:58:35;4.75;;;2.25;;
48765;SDS011;65794;51.836;5.002;2023-07-31T11:01:03;4.93;;;2.28;;
48765;SDS011;65794;51.836;5.002;2023-07-31T11:06:09;7.53;;;2.70;;
48765;SDS011;65794;51.836;5.002;2023-07-31T11:08:43;5.10;;;2.00;;
48765;SDS011;65794;51.836;5.002;2023-07-31T11:11:11;4.28;;;2.20;;
48765;SDS011;65794;51.836;5.002;2023-07-31T11:13:44;6.78;;;2.03;;
48765;SDS011;65794;51.836;5.002;2023-07-31T11:16:12;8.95;;;1.85;;
48765;SDS011;65794;51.836;5.002;2023-07-31T11:18:40;5.57;;;1.80;;
48765;SDS011;65794;51.836;5.002;2023-07-31T11:21:09;5.35;;;1.63;;
48765;SDS011;65794;51.836;5.002;2023-07-31T11:23:38;4.93;;;1.90;;
48765;SDS011;65794;51.836;5.002;2023-07-31T11:26:06;3.50;;;2.00;;
48765;SDS011;65794;51.836;5.002;2023-07-31T11:28:34;4.28;;;2.35;;
48765;SDS011;65794;51.836;5.002;2023-07-31T11:31:02;4.78;;;2.47;;
48765;SDS011;65794;51.836;5.002;2023-07-31T11:33:29;3.47;;;2.45;;
48765;SDS011;65794;51.836;5.002;2023-07-31T11:35:56;5.30;;;2.92;;
48765;SDS011;65794;51.836;5.002;2023-07-31T11:38:27;7.47;;;2.90;;
48765;SDS011;65794;51.836;5.002;2023-07-31T11:41:03;6.28;;;3.40;;
48765;SDS011;65794;51.836;5.002;2023-07-31T11:43:31;6.72;;;4.05;;
48765;SDS011;65794;51.836;5.002;2023-07-31T11:45:59;5.65;;;3.20;;
48765;SDS011;65794;51.836;5.002;2023-07-31T11:48:27;6.70;;;3.88;;
48765;SDS011;65794;51.836;5.002;2023-07-31T11:50:56;7.93;;;3.40;;
48765;SDS011;65794;51.836;5.002;2023-07-31T11:53:35;6.43;;;3.35;;
48765;SDS011;65794;51.836;5.002;2023-07-31T11:56:03;5.82;;;3.22;;
48765;SDS011;65794;51.836;5.002;2023-07-31T11:58:34;5.78;;;3.40;;
48765;SDS011;65794;51.836;5.002;2023-07-31T12:01:01;4.85;;;2.85;;
48765;SDS011;65794;51.836;5.002;2023-07-31T12:03:28;6.45;;;3.15;;
48765;SDS011;65794;51.836;5.002;2023-07-31T12:05:55;6.00;;;3.42;;
48765;SDS011;65794;51.836;5.002;2023-07-31T12:08:23;5.60;;;3.17;;
48765;SDS011;65794;51.836;5.002;2023-07-31T12:10:50;6.88;;;3.50;;
48765;SDS011;65794;51.836;5.002;2023-07-31T12:13:21;6.07;;;3.83;;
48765;SDS011;65794;51.836;5.002;2023-07-31T12:15:49;7.00;;;3.28;;
48765;SDS011;65794;51.836;5.002;2023-07-31T12:18:20;6.43;;;3.50;;
48765;SDS011;65794;51.836;5.002;2023-07-31T12:20:48;9.32;;;3.53;;
48765;SDS011;65794;51.836;5.002;2023-07-31T12:25:45;6.18;;;3.08;;
48765;SDS011;65794;51.836;5.002;2023-07-31T12:28:13;4.50;;;2.58;;
48765;SDS011;65794;51.836;5.002;2023-07-31T12:30:40;5.25;;;3.00;;
48765;SDS011;65794;51.836;5.002;2023-07-31T12:33:12;5.95;;;2.67;;
48765;SDS011;65794;51.836;5.002;2023-07-31T12:35:43;4.53;;;2.85;;
48765;SDS011;65794;51.836;5.002;2023-07-31T12:38:14;4.40;;;2.75;;
48765;SDS011;65794;51.836;5.002;2023-07-31T12:40:41;4.80;;;2.60;;
48765;SDS011;65794;51.836;5.002;2023-07-31T12:43:08;6.85;;;2.72;;
48765;SDS011;65794;51.836;5.002;2023-07-31T12:45:36;5.00;;;2.63;;
48765;SDS011;65794;51.836;5.002;2023-07-31T12:48:03;6.15;;;3.08;;
48765;SDS011;65794;51.836;5.002;2023-07-31T12:50:30;7.57;;;3.10;;
48765;SDS011;65794;51.836;5.002;2023-07-31T12:52:57;8.40;;;3.75;;
48765;SDS011;65794;51.836;5.002;2023-07-31T12:55:24;9.52;;;4.93;;
48765;SDS011;65794;51.836;5.002;2023-07-31T12:57:51;9.13;;;5.07;;
48765;SDS011;65794;51.836;5.002;2023-07-31T13:00:20;9.50;;;4.55;;
48765;SDS011;65794;51.836;5.002;2023-07-31T13:02:47;9.00;;;5.15;;
48765;SDS011;65794;51.836;5.002;2023-07-31T13:05:15;10.88;;;6.35;;
48765;SDS011;65794;51.836;5.002;2023-07-31T13:07:42;12.13;;;6.70;;
48765;SDS011;65794;51.836;5.002;2023-07-31T13:10:10;12.57;;;7.00;;
48765;SDS011;65794;51.836;5.002;2023-07-31T13:12:37;14.57;;;7.70;;
48765;SDS011;65794;51.836;5.002;2023-07-31T13:15:05;17.70;;;8.70;;
48765;SDS011;65794;51.836;5.002;2023-07-31T13:17:32;14.20;;;8.13;;
48765;SDS011;65794;51.836;5.002;2023-07-31T13:20:00;15.27;;;8.57;;
48765;SDS011;65794;51.836;5.002;2023-07-31T13:22:27;15.40;;;7.97;;
48765;SDS011;65794;51.836;5.002;2023-07-31T13:24:54;15.68;;;7.45;;
48765;SDS011;65794;51.836;5.002;2023-07-31T13:27:21;17.35;;;9.18;;
48765;SDS011;65794;51.836;5.002;2023-07-31T13:29:48;19.35;;;8.43;;
48765;SDS011;65794;51.836;5.002;2023-07-31T13:32:16;19.02;;;7.95;;
48765;SDS011;65794;51.836;5.002;2023-07-31T13:34:44;16.42;;;8.00;;
48765;SDS011;65794;51.836;5.002;2023-07-31T13:37:11;17.88;;;8.05;;
48765;SDS011;65794;51.836;5.002;2023-07-31T13:39:38;16.60;;;8.80;;
48765;SDS011;65794;51.836;5.002;2023-07-31T13:42:06;17.17;;;8.82;;
48765;SDS011;65794;51.836;5.002;2023-07-31T13:44:35;13.35;;;8.52;;
48765;SDS011;65794;51.836;5.002;2023-07-31T13:47:02;18.52;;;9.40;;
48765;SDS011;65794;51.836;5.002;2023-07-31T13:49:29;16.25;;;7.68;;
48765;SDS011;65794;51.836;5.002;2023-07-31T13:51:57;18.60;;;8.75;;
48765;SDS011;65794;51.836;5.002;2023-07-31T13:54:24;15.57;;;8.32;;
48765;SDS011;65794;51.836;5.002;2023-07-31T13:56:56;11.70;;;7.30;;
48765;SDS011;65794;51.836;5.002;2023-07-31T13:59:23;13.50;;;7.43;;
48765;SDS011;65794;51.836;5.002;2023-07-31T14:01:50;14.98;;;7.22;;
48765;SDS011;65794;51.836;5.002;2023-07-31T14:04:17;10.60;;;6.45;;
48765;SDS011;65794;51.836;5.002;2023-07-31T14:06:44;12.07;;;6.85;;
48765;SDS011;65794;51.836;5.002;2023-07-31T14:09:14;14.48;;;6.60;;
48765;SDS011;65794;51.836;5.002;2023-07-31T14:11:41;12.48;;;6.60;;
48765;SDS011;65794;51.836;5.002;2023-07-31T14:14:09;13.73;;;6.50;;
48765;SDS011;65794;51.836;5.002;2023-07-31T14:16:36;9.70;;;5.50;;
48765;SDS011;65794;51.836;5.002;2023-07-31T14:19:03;11.65;;;6.05;;
48765;SDS011;65794;51.836;5.002;2023-07-31T14:21:31;9.77;;;5.72;;
48765;SDS011;65794;51.836;5.002;2023-07-31T14:23:59;8.85;;;4.95;;
48765;SDS011;65794;51.836;5.002;2023-07-31T14:26:26;11.73;;;5.47;;
48765;SDS011;65794;51.836;5.002;2023-07-31T14:28:53;13.02;;;5.40;;
48765;SDS011;65794;51.836;5.002;2023-07-31T14:31:20;12.13;;;5.47;;
48765;SDS011;65794;51.836;5.002;2023-07-31T14:33:47;13.27;;;6.38;;
48765;SDS011;65794;51.836;5.002;2023-07-31T14:36:14;12.20;;;6.22;;
48765;SDS011;65794;51.836;5.002;2023-07-31T14:38:41;13.90;;;5.95;;
48765;SDS011;65794;51.836;5.002;2023-07-31T14:41:08;10.85;;;6.03;;
48765;SDS011;65794;51.836;5.002;2023-07-31T14:43:35;12.02;;;5.78;;
48765;SDS011;65794;51.836;5.002;2023-07-31T14:46:02;10.77;;;5.30;;
48765;SDS011;65794;51.836;5.002;2023-07-31T14:48:29;12.50;;;5.35;;
48765;SDS011;65794;51.836;5.002;2023-07-31T14:50:56;10.85;;;5.53;;
48765;SDS011;65794;51.836;5.002;2023-07-31T14:53:23;11.55;;;5.10;;
48765;SDS011;65794;51.836;5.002;2023-07-31T14:55:50;9.85;;;4.18;;
48765;SDS011;65794;51.836;5.002;2023-07-31T14:58:17;9.00;;;3.90;;
48765;SDS011;65794;51.836;5.002;2023-07-31T15:00:44;8.07;;;4.28;;